sensor_id;sensor_type;location;lat;lon;timestamp;temperature;humidity
40816;DHT22;26535;48.788;9.214;2023-12-28T00:01:08;4.10;99.90
40816;DHT22;26535;48.788;9.214;2023-12-28T00:03:34;3.90;99.90
40816;DHT22;26535;48.788;9.214;2023-12-28T00:06:00;3.90;99.90
40816;DHT22;26535;48.788;9.214;2023-12-28T00:08:25;3.80;99.90
40816;DHT22;26535;48.788;9.214;2023-12-28T00:10:51;3.80;99.90
40816;DHT22;26535;48.788;9.214;2023-12-28T00:13:17;3.90;99.90
40816;DHT22;26535;48.788;9.214;2023-12-28T00:15:43;3.90;99.90
40816;DHT22;26535;48.788;9.214;2023-12-28T00:18:08;3.80;99.90
40816;DHT22;26535;48.788;9.214;2023-12-28T00:20:34;3.90;99.90
40816;DHT22;26535;48.788;9.214;2023-12-28T00:23:00;3.90;99.90
40816;DHT22;26535;48.788;9.214;2023-12-28T00:25:28;3.90;99.90
40816;DHT22;26535;48.788;9.214;2023-12-28T00:27:54;4.00;99.90
40816;DHT22;26535;48.788;9.214;2023-12-28T00:30:20;4.00;99.90
40816;DHT22;26535;48.788;9.214;2023-12-28T00:32:45;3.90;99.90
40816;DHT22;26535;48.788;9.214;2023-12-28T00:35:11;3.90;99.90
40816;DHT22;26535;48.788;9.214;2023-12-28T00:37:40;3.80;99.90
40816;DHT22;26535;48.788;9.214;2023-12-28T00:40:09;3.80;99.90
40816;DHT22;26535;48.788;9.214;2023-12-28T00:42:35;3.70;99.90
40816;DHT22;26535;48.788;9.214;2023-12-28T00:45:00;3.70;99.90
40816;DHT22;26535;48.788;9.214;2023-12-28T00:47:26;3.70;99.90
40816;DHT22;26535;48.788;9.214;2023-12-28T00:49:52;3.70;99.90
40816;DHT22;26535;48.788;9.214;2023-12-28T00:52:18;3.70;99.90
40816;DHT22;26535;48.788;9.214;2023-12-28T00:54:43;3.70;99.90
40816;DHT22;26535;48.788;9.214;2023-12-28T00:57:09;3.70;99.90
40816;DHT22;26535;48.788;9.214;2023-12-28T00:59:35;3.80;99.90
40816;DHT22;26535;48.788;9.214;2023-12-28T01:02:00;3.90;99.90
40816;DHT22;26535;48.788;9.214;2023-12-28T01:04:26;3.90;99.90
40816;DHT22;26535;48.788;9.214;2023-12-28T01:06:52;3.90;99.70
40816;DHT22;26535;48.788;9.214;2023-12-28T01:09:19;3.90;99.70
40816;DHT22;26535;48.788;9.214;2023-12-28T01:11:45;4.00;99.70
40816;DHT22;26535;48.788;9.214;2023-12-28T01:14:11;4.00;99.90
40816;DHT22;26535;48.788;9.214;2023-12-28T01:16:36;4.00;99.90
40816;DHT22;26535;48.788;9.214;2023-12-28T01:19:05;3.90;99.90
40816;DHT22;26535;48.788;9.214;2023-12-28T01:21:31;3.90;99.90
40816;DHT22;26535;48.788;9.214;2023-12-28T01:23:57;3.80;99.90
40816;DHT22;26535;48.788;9.214;2023-12-28T01:26:22;3.70;99.90
40816;DHT22;26535;48.788;9.214;2023-12-28T01:28:48;3.70;99.90
40816;DHT22;26535;48.788;9.214;2023-12-28T01:31:14;3.80;99.90
40816;DHT22;26535;48.788;9.214;2023-12-28T01:33:39;4.00;99.90
40816;DHT22;26535;48.788;9.214;2023-12-28T01:36:18;4.10;99.50
40816;DHT22;26535;48.788;9.214;2023-12-28T01:38:45;4.20;98.50
40816;DHT22;26535;48.788;9.214;2023-12-28T01:41:10;4.10;98.40
40816;DHT22;26535;48.788;9.214;2023-12-28T01:43:38;4.00;98.80
40816;DHT22;26535;48.788;9.214;2023-12-28T01:46:14;4.00;99.50
40816;DHT22;26535;48.788;9.214;2023-12-28T01:48:42;3.80;99.70
40816;DHT22;26535;48.788;9.214;2023-12-28T01:51:08;3.70;99.90
40816;DHT22;26535;48.788;9.214;2023-12-28T01:53:33;3.70;99.90
40816;DHT22;26535;48.788;9.214;2023-12-28T01:55:59;3.70;99.90
40816;DHT22;26535;48.788;9.214;2023-12-28T01:58:27;3.70;99.90
40816;DHT22;26535;48.788;9.214;2023-12-28T02:00:56;3.60;99.90
40816;DHT22;26535;48.788;9.214;2023-12-28T02:03:22;3.60;99.90
40816;DHT22;26535;48.788;9.214;2023-12-28T02:05:48;3.50;99.90
40816;DHT22;26535;48.788;9.214;2023-12-28T02:08:13;3.50;99.90
40816;DHT22;26535;48.788;9.214;2023-12-28T02:10:39;3.50;99.90
40816;DHT22;26535;48.788;9.214;2023-12-28T02:13:05;3.40;99.90
40816;DHT22;26535;48.788;9.214;2023-12-28T02:15:31;3.40;99.90
40816;DHT22;26535;48.788;9.214;2023-12-28T02:18:12;3.30;99.90
40816;DHT22;26535;48.788;9.214;2023-12-28T02:20:41;3.30;99.90
40816;DHT22;26535;48.788;9.214;2023-12-28T02:23:09;3.20;99.90
40816;DHT22;26535;48.788;9.214;2023-12-28T02:25:35;3.20;99.90
40816;DHT22;26535;48.788;9.214;2023-12-28T02:28:01;3.20;99.90
40816;DHT22;26535;48.788;9.214;2023-12-28T02:30:27;3.10;99.90
40816;DHT22;26535;48.788;9.214;2023-12-28T02:33:19;3.20;99.90
40816;DHT22;26535;48.788;9.214;2023-12-28T02:36:10;3.20;99.90
40816;DHT22;26535;48.788;9.214;2023-12-28T02:38:38;3.20;99.90
40816;DHT22;26535;48.788;9.214;2023-12-28T02:41:04;3.30;99.90
40816;DHT22;26535;48.788;9.214;2023-12-28T02:43:30;3.20;99.90
40816;DHT22;26535;48.788;9.214;2023-12-28T02:45:57;3.20;99.90
40816;DHT22;26535;48.788;9.214;2023-12-28T02:48:23;3.20;99.90
40816;DHT22;26535;48.788;9.214;2023-12-28T02:50:49;3.20;99.90
40816;DHT22;26535;48.788;9.214;2023-12-28T02:53:14;3.20;99.90
40816;DHT22;26535;48.788;9.214;2023-12-28T02:55:40;3.20;99.90
40816;DHT22;26535;48.788;9.214;2023-12-28T02:58:06;3.20;99.90
40816;DHT22;26535;48.788;9.214;2023-12-28T03:00:31;3.20;99.90
40816;DHT22;26535;48.788;9.214;2023-12-28T03:02:57;3.10;99.90
40816;DHT22;26535;48.788;9.214;2023-12-28T03:05:23;3.10;99.90
40816;DHT22;26535;48.788;9.214;2023-12-28T03:07:48;3.10;99.90
40816;DHT22;26535;48.788;9.214;2023-12-28T03:10:15;3.10;99.90
40816;DHT22;26535;48.788;9.214;2023-12-28T03:12:41;3.10;99.90
40816;DHT22;26535;48.788;9.214;2023-12-28T03:15:06;3.10;99.90
40816;DHT22;26535;48.788;9.214;2023-12-28T03:17:33;3.10;99.90
40816;DHT22;26535;48.788;9.214;2023-12-28T03:20:00;3.20;99.90
40816;DHT22;26535;48.788;9.214;2023-12-28T03:22:32;3.10;99.90
40816;DHT22;26535;48.788;9.214;2023-12-28T03:24:58;3.20;99.90
40816;DHT22;26535;48.788;9.214;2023-12-28T03:27:23;3.20;99.90
40816;DHT22;26535;48.788;9.214;2023-12-28T03:29:49;3.20;99.90
40816;DHT22;26535;48.788;9.214;2023-12-28T03:32:15;3.20;99.90
40816;DHT22;26535;48.788;9.214;2023-12-28T03:34:41;3.30;99.90
40816;DHT22;26535;48.788;9.214;2023-12-28T03:37:06;3.30;99.90
40816;DHT22;26535;48.788;9.214;2023-12-28T03:39:33;3.30;99.90
40816;DHT22;26535;48.788;9.214;2023-12-28T03:41:59;3.30;99.90
40816;DHT22;26535;48.788;9.214;2023-12-28T03:44:25;3.30;99.90
40816;DHT22;26535;48.788;9.214;2023-12-28T03:46:50;3.40;99.90
40816;DHT22;26535;48.788;9.214;2023-12-28T03:49:20;3.40;99.90
40816;DHT22;26535;48.788;9.214;2023-12-28T03:51:49;3.40;99.90
40816;DHT22;26535;48.788;9.214;2023-12-28T03:54:19;3.40;99.90
40816;DHT22;26535;48.788;9.214;2023-12-28T03:56:48;3.40;99.90
40816;DHT22;26535;48.788;9.214;2023-12-28T03:59:14;3.50;99.90
40816;DHT22;26535;48.788;9.214;2023-12-28T04:01:43;3.40;99.90
40816;DHT22;26535;48.788;9.214;2023-12-28T04:04:09;3.40;99.90
40816;DHT22;26535;48.788;9.214;2023-12-28T04:06:35;3.40;99.90
40816;DHT22;26535;48.788;9.214;2023-12-28T04:09:01;3.40;99.90
40816;DHT22;26535;48.788;9.214;2023-12-28T04:11:28;3.40;99.90
40816;DHT22;26535;48.788;9.214;2023-12-28T04:13:53;3.40;99.90
40816;DHT22;26535;48.788;9.214;2023-12-28T04:16:20;3.40;99.90
40816;DHT22;26535;48.788;9.214;2023-12-28T04:18:46;3.40;99.90
40816;DHT22;26535;48.788;9.214;2023-12-28T04:21:12;3.40;99.90
40816;DHT22;26535;48.788;9.214;2023-12-28T04:23:40;3.40;99.90
40816;DHT22;26535;48.788;9.214;2023-12-28T04:26:06;3.40;99.90
40816;DHT22;26535;48.788;9.214;2023-12-28T04:28:32;3.50;99.90
40816;DHT22;26535;48.788;9.214;2023-12-28T04:31:06;3.50;99.90
40816;DHT22;26535;48.788;9.214;2023-12-28T04:33:32;3.60;99.90
40816;DHT22;26535;48.788;9.214;2023-12-28T04:36:04;3.60;99.90
40816;DHT22;26535;48.788;9.214;2023-12-28T04:38:31;3.70;99.90
40816;DHT22;26535;48.788;9.214;2023-12-28T04:41:01;3.80;99.90
40816;DHT22;26535;48.788;9.214;2023-12-28T04:43:28;3.90;99.90
40816;DHT22;26535;48.788;9.214;2023-12-28T04:45:54;4.00;99.90
40816;DHT22;26535;48.788;9.214;2023-12-28T04:48:19;4.10;99.90
40816;DHT22;26535;48.788;9.214;2023-12-28T04:50:47;4.10;99.90
40816;DHT22;26535;48.788;9.214;2023-12-28T04:53:13;4.10;99.90
40816;DHT22;26535;48.788;9.214;2023-12-28T04:55:39;4.10;99.90
40816;DHT22;26535;48.788;9.214;2023-12-28T04:58:05;4.10;99.90
40816;DHT22;26535;48.788;9.214;2023-12-28T05:00:30;4.10;99.90
40816;DHT22;26535;48.788;9.214;2023-12-28T05:02:56;4.10;99.90
40816;DHT22;26535;48.788;9.214;2023-12-28T05:05:22;4.10;99.90
40816;DHT22;26535;48.788;9.214;2023-12-28T05:07:48;4.10;99.90
40816;DHT22;26535;48.788;9.214;2023-12-28T05:10:14;4.10;99.90
40816;DHT22;26535;48.788;9.214;2023-12-28T05:12:39;4.10;99.90
40816;DHT22;26535;48.788;9.214;2023-12-28T05:15:06;4.10;99.70
40816;DHT22;26535;48.788;9.214;2023-12-28T05:17:31;4.10;99.90
40816;DHT22;26535;48.788;9.214;2023-12-28T05:19:57;4.30;99.10
40816;DHT22;26535;48.788;9.214;2023-12-28T05:22:23;4.50;99.10
40816;DHT22;26535;48.788;9.214;2023-12-28T05:24:48;4.60;98.90
40816;DHT22;26535;48.788;9.214;2023-12-28T05:27:14;4.70;98.80
40816;DHT22;26535;48.788;9.214;2023-12-28T05:29:40;4.80;98.90
40816;DHT22;26535;48.788;9.214;2023-12-28T05:32:06;4.90;99.00
40816;DHT22;26535;48.788;9.214;2023-12-28T05:34:31;4.90;99.00
40816;DHT22;26535;48.788;9.214;2023-12-28T05:36:57;4.90;99.20
40816;DHT22;26535;48.788;9.214;2023-12-28T05:39:22;4.90;99.30
40816;DHT22;26535;48.788;9.214;2023-12-28T05:41:48;4.90;99.20
40816;DHT22;26535;48.788;9.214;2023-12-28T05:44:16;5.00;98.80
40816;DHT22;26535;48.788;9.214;2023-12-28T05:46:42;5.10;98.50
40816;DHT22;26535;48.788;9.214;2023-12-28T05:49:08;5.40;97.20
40816;DHT22;26535;48.788;9.214;2023-12-28T05:51:40;5.80;96.50
40816;DHT22;26535;48.788;9.214;2023-12-28T05:54:07;6.00;96.10
40816;DHT22;26535;48.788;9.214;2023-12-28T05:56:32;6.00;96.60
40816;DHT22;26535;48.788;9.214;2023-12-28T05:58:58;5.90;97.00
40816;DHT22;26535;48.788;9.214;2023-12-28T06:01:24;5.80;96.80
40816;DHT22;26535;48.788;9.214;2023-12-28T06:03:50;5.70;96.90
40816;DHT22;26535;48.788;9.214;2023-12-28T06:06:18;5.90;95.70
40816;DHT22;26535;48.788;9.214;2023-12-28T06:08:44;6.50;94.20
40816;DHT22;26535;48.788;9.214;2023-12-28T06:11:09;7.10;93.20
40816;DHT22;26535;48.788;9.214;2023-12-28T06:13:35;7.80;92.00
40816;DHT22;26535;48.788;9.214;2023-12-28T06:16:01;8.20;91.30
40816;DHT22;26535;48.788;9.214;2023-12-28T06:18:26;8.50;90.80
40816;DHT22;26535;48.788;9.214;2023-12-28T06:20:52;8.90;90.50
40816;DHT22;26535;48.788;9.214;2023-12-28T06:23:18;9.20;90.20
40816;DHT22;26535;48.788;9.214;2023-12-28T06:25:44;9.40;89.80
40816;DHT22;26535;48.788;9.214;2023-12-28T06:28:10;9.40;89.50
40816;DHT22;26535;48.788;9.214;2023-12-28T06:30:35;9.50;89.80
40816;DHT22;26535;48.788;9.214;2023-12-28T06:33:01;9.50;89.80
40816;DHT22;26535;48.788;9.214;2023-12-28T06:35:27;9.60;89.70
40816;DHT22;26535;48.788;9.214;2023-12-28T06:37:52;9.60;89.80
40816;DHT22;26535;48.788;9.214;2023-12-28T06:40:18;9.60;90.10
40816;DHT22;26535;48.788;9.214;2023-12-28T06:42:44;9.50;90.30
40816;DHT22;26535;48.788;9.214;2023-12-28T06:45:10;9.20;91.00
40816;DHT22;26535;48.788;9.214;2023-12-28T06:47:36;8.80;91.60
40816;DHT22;26535;48.788;9.214;2023-12-28T06:50:02;8.50;92.10
40816;DHT22;26535;48.788;9.214;2023-12-28T06:52:27;8.10;92.70
40816;DHT22;26535;48.788;9.214;2023-12-28T06:54:54;8.10;93.40
40816;DHT22;26535;48.788;9.214;2023-12-28T06:57:20;8.30;93.10
40816;DHT22;26535;48.788;9.214;2023-12-28T06:59:45;8.40;92.90
40816;DHT22;26535;48.788;9.214;2023-12-28T07:02:11;8.30;92.50
40816;DHT22;26535;48.788;9.214;2023-12-28T07:04:37;8.10;93.00
40816;DHT22;26535;48.788;9.214;2023-12-28T07:07:03;7.80;93.70
40816;DHT22;26535;48.788;9.214;2023-12-28T07:09:29;7.60;94.50
40816;DHT22;26535;48.788;9.214;2023-12-28T07:11:54;7.40;95.00
40816;DHT22;26535;48.788;9.214;2023-12-28T07:14:20;7.30;95.30
40816;DHT22;26535;48.788;9.214;2023-12-28T07:16:46;7.20;95.40
40816;DHT22;26535;48.788;9.214;2023-12-28T07:19:11;7.20;95.40
40816;DHT22;26535;48.788;9.214;2023-12-28T07:21:37;7.10;95.50
40816;DHT22;26535;48.788;9.214;2023-12-28T07:24:03;7.10;95.50
40816;DHT22;26535;48.788;9.214;2023-12-28T07:26:29;7.10;95.70
40816;DHT22;26535;48.788;9.214;2023-12-28T07:28:54;7.10;95.60
40816;DHT22;26535;48.788;9.214;2023-12-28T07:31:27;7.10;95.70
40816;DHT22;26535;48.788;9.214;2023-12-28T07:33:54;7.10;95.90
40816;DHT22;26535;48.788;9.214;2023-12-28T07:36:20;7.10;95.50
40816;DHT22;26535;48.788;9.214;2023-12-28T07:38:46;7.10;95.80
40816;DHT22;26535;48.788;9.214;2023-12-28T07:41:12;7.10;95.80
40816;DHT22;26535;48.788;9.214;2023-12-28T07:43:37;7.10;95.70
40816;DHT22;26535;48.788;9.214;2023-12-28T07:46:03;7.10;95.70
40816;DHT22;26535;48.788;9.214;2023-12-28T07:48:30;7.10;95.80
40816;DHT22;26535;48.788;9.214;2023-12-28T07:50:57;7.00;95.50
40816;DHT22;26535;48.788;9.214;2023-12-28T07:53:22;7.10;95.70
40816;DHT22;26535;48.788;9.214;2023-12-28T07:55:48;7.00;95.80
40816;DHT22;26535;48.788;9.214;2023-12-28T07:58:15;7.10;96.10
40816;DHT22;26535;48.788;9.214;2023-12-28T08:00:41;7.10;96.10
40816;DHT22;26535;48.788;9.214;2023-12-28T08:03:06;7.10;96.00
40816;DHT22;26535;48.788;9.214;2023-12-28T08:05:32;7.10;95.60
40816;DHT22;26535;48.788;9.214;2023-12-28T08:07:57;7.20;95.80
40816;DHT22;26535;48.788;9.214;2023-12-28T08:10:23;7.20;95.70
40816;DHT22;26535;48.788;9.214;2023-12-28T08:12:50;7.20;96.00
40816;DHT22;26535;48.788;9.214;2023-12-28T08:15:15;7.10;95.80
40816;DHT22;26535;48.788;9.214;2023-12-28T08:17:41;7.20;95.80
40816;DHT22;26535;48.788;9.214;2023-12-28T08:20:07;7.20;95.80
40816;DHT22;26535;48.788;9.214;2023-12-28T08:22:33;7.20;95.70
40816;DHT22;26535;48.788;9.214;2023-12-28T08:24:59;7.30;95.70
40816;DHT22;26535;48.788;9.214;2023-12-28T08:27:24;7.30;95.60
40816;DHT22;26535;48.788;9.214;2023-12-28T08:29:50;7.40;95.70
40816;DHT22;26535;48.788;9.214;2023-12-28T08:32:16;7.40;95.60
40816;DHT22;26535;48.788;9.214;2023-12-28T08:34:43;7.50;95.90
40816;DHT22;26535;48.788;9.214;2023-12-28T08:37:08;7.60;95.60
40816;DHT22;26535;48.788;9.214;2023-12-28T08:39:34;7.70;96.10
40816;DHT22;26535;48.788;9.214;2023-12-28T08:42:00;7.70;95.90
40816;DHT22;26535;48.788;9.214;2023-12-28T08:44:26;7.80;96.10
40816;DHT22;26535;48.788;9.214;2023-12-28T08:46:51;7.80;96.10
40816;DHT22;26535;48.788;9.214;2023-12-28T08:49:17;7.80;95.90
40816;DHT22;26535;48.788;9.214;2023-12-28T08:51:43;7.80;95.80
40816;DHT22;26535;48.788;9.214;2023-12-28T08:54:09;7.80;95.90
40816;DHT22;26535;48.788;9.214;2023-12-28T08:56:35;7.80;96.00
40816;DHT22;26535;48.788;9.214;2023-12-28T08:59:01;7.90;96.20
40816;DHT22;26535;48.788;9.214;2023-12-28T09:01:27;7.90;96.20
40816;DHT22;26535;48.788;9.214;2023-12-28T09:03:55;7.90;95.80
40816;DHT22;26535;48.788;9.214;2023-12-28T09:06:21;8.00;96.10
40816;DHT22;26535;48.788;9.214;2023-12-28T09:08:51;8.00;96.00
40816;DHT22;26535;48.788;9.214;2023-12-28T09:11:18;8.00;96.10
40816;DHT22;26535;48.788;9.214;2023-12-28T09:13:44;8.00;95.70
40816;DHT22;26535;48.788;9.214;2023-12-28T09:16:14;7.90;95.90
40816;DHT22;26535;48.788;9.214;2023-12-28T09:18:40;7.90;95.90
40816;DHT22;26535;48.788;9.214;2023-12-28T09:21:07;7.90;96.00
40816;DHT22;26535;48.788;9.214;2023-12-28T09:23:34;7.80;96.40
40816;DHT22;26535;48.788;9.214;2023-12-28T09:26:04;7.80;96.30
40816;DHT22;26535;48.788;9.214;2023-12-28T09:28:33;7.90;96.40
40816;DHT22;26535;48.788;9.214;2023-12-28T09:31:00;7.90;96.60
40816;DHT22;26535;48.788;9.214;2023-12-28T09:33:26;7.90;96.20
40816;DHT22;26535;48.788;9.214;2023-12-28T09:35:52;8.00;96.50
40816;DHT22;26535;48.788;9.214;2023-12-28T09:38:19;8.10;96.50
40816;DHT22;26535;48.788;9.214;2023-12-28T09:40:44;8.20;96.60
40816;DHT22;26535;48.788;9.214;2023-12-28T09:45:49;8.50;96.70
40816;DHT22;26535;48.788;9.214;2023-12-28T09:48:19;8.60;96.90
40816;DHT22;26535;48.788;9.214;2023-12-28T09:50:52;8.80;97.50
40816;DHT22;26535;48.788;9.214;2023-12-28T09:53:23;8.90;97.10
40816;DHT22;26535;48.788;9.214;2023-12-28T09:55:49;9.00;97.20
40816;DHT22;26535;48.788;9.214;2023-12-28T09:58:18;9.00;96.50
40816;DHT22;26535;48.788;9.214;2023-12-28T10:00:45;9.00;96.10
40816;DHT22;26535;48.788;9.214;2023-12-28T10:03:13;8.90;96.10
40816;DHT22;26535;48.788;9.214;2023-12-28T10:05:41;8.90;96.20
40816;DHT22;26535;48.788;9.214;2023-12-28T10:08:07;8.90;96.20
40816;DHT22;26535;48.788;9.214;2023-12-28T10:10:33;8.90;96.30
40816;DHT22;26535;48.788;9.214;2023-12-28T10:13:00;8.90;96.20
40816;DHT22;26535;48.788;9.214;2023-12-28T10:15:25;8.80;96.10
40816;DHT22;26535;48.788;9.214;2023-12-28T10:17:52;8.80;95.90
40816;DHT22;26535;48.788;9.214;2023-12-28T10:20:17;8.80;95.80
40816;DHT22;26535;48.788;9.214;2023-12-28T10:22:44;8.90;96.00
40816;DHT22;26535;48.788;9.214;2023-12-28T10:25:12;8.90;95.90
40816;DHT22;26535;48.788;9.214;2023-12-28T10:27:40;8.90;95.90
40816;DHT22;26535;48.788;9.214;2023-12-28T10:30:09;8.90;96.10
40816;DHT22;26535;48.788;9.214;2023-12-28T10:32:41;9.00;96.00
40816;DHT22;26535;48.788;9.214;2023-12-28T10:35:07;9.00;96.00
40816;DHT22;26535;48.788;9.214;2023-12-28T10:37:35;9.20;95.90
40816;DHT22;26535;48.788;9.214;2023-12-28T10:40:07;9.40;96.10
40816;DHT22;26535;48.788;9.214;2023-12-28T10:42:37;9.40;95.60
40816;DHT22;26535;48.788;9.214;2023-12-28T10:45:10;9.50;95.90
40816;DHT22;26535;48.788;9.214;2023-12-28T10:47:37;9.60;95.40
40816;DHT22;26535;48.788;9.214;2023-12-28T10:50:04;9.80;95.80
40816;DHT22;26535;48.788;9.214;2023-12-28T10:52:31;10.20;95.60
40816;DHT22;26535;48.788;9.214;2023-12-28T10:55:24;10.70;94.90
40816;DHT22;26535;48.788;9.214;2023-12-28T10:58:27;11.10;94.40
40816;DHT22;26535;48.788;9.214;2023-12-28T11:00:59;11.30;94.10
40816;DHT22;26535;48.788;9.214;2023-12-28T11:03:30;11.50;93.80
40816;DHT22;26535;48.788;9.214;2023-12-28T11:05:59;11.70;93.80
40816;DHT22;26535;48.788;9.214;2023-12-28T11:08:26;11.70;93.60
40816;DHT22;26535;48.788;9.214;2023-12-28T11:10:53;11.70;93.60
40816;DHT22;26535;48.788;9.214;2023-12-28T11:13:20;11.80;93.70
40816;DHT22;26535;48.788;9.214;2023-12-28T11:15:47;11.80;93.70
40816;DHT22;26535;48.788;9.214;2023-12-28T11:18:15;11.80;93.70
40816;DHT22;26535;48.788;9.214;2023-12-28T11:20:42;11.80;93.80
40816;DHT22;26535;48.788;9.214;2023-12-28T11:23:10;11.80;93.90
40816;DHT22;26535;48.788;9.214;2023-12-28T11:25:36;11.80;93.80
40816;DHT22;26535;48.788;9.214;2023-12-28T11:28:11;11.80;94.40
40816;DHT22;26535;48.788;9.214;2023-12-28T11:30:41;11.90;94.10
40816;DHT22;26535;48.788;9.214;2023-12-28T11:33:06;11.90;94.20
40816;DHT22;26535;48.788;9.214;2023-12-28T11:35:36;11.90;94.30
40816;DHT22;26535;48.788;9.214;2023-12-28T11:38:04;11.80;94.50
40816;DHT22;26535;48.788;9.214;2023-12-28T11:40:40;11.90;94.70
40816;DHT22;26535;48.788;9.214;2023-12-28T11:43:15;11.80;94.90
40816;DHT22;26535;48.788;9.214;2023-12-28T11:45:48;11.80;95.00
40816;DHT22;26535;48.788;9.214;2023-12-28T11:48:23;11.90;95.00
40816;DHT22;26535;48.788;9.214;2023-12-28T11:50:50;11.90;95.10
40816;DHT22;26535;48.788;9.214;2023-12-28T11:53:16;11.90;95.20
40816;DHT22;26535;48.788;9.214;2023-12-28T11:55:42;11.90;95.20
40816;DHT22;26535;48.788;9.214;2023-12-28T11:58:07;11.90;95.20
40816;DHT22;26535;48.788;9.214;2023-12-28T12:00:33;11.90;95.30
40816;DHT22;26535;48.788;9.214;2023-12-28T12:02:59;11.90;95.30
40816;DHT22;26535;48.788;9.214;2023-12-28T12:05:24;12.00;95.40
40816;DHT22;26535;48.788;9.214;2023-12-28T12:07:50;12.00;95.30
40816;DHT22;26535;48.788;9.214;2023-12-28T12:10:16;12.00;95.10
40816;DHT22;26535;48.788;9.214;2023-12-28T12:12:42;12.00;95.30
40816;DHT22;26535;48.788;9.214;2023-12-28T12:15:08;12.00;95.20
40816;DHT22;26535;48.788;9.214;2023-12-28T12:17:34;12.00;95.20
40816;DHT22;26535;48.788;9.214;2023-12-28T12:20:00;12.00;95.30
40816;DHT22;26535;48.788;9.214;2023-12-28T12:22:27;12.10;95.20
40816;DHT22;26535;48.788;9.214;2023-12-28T12:24:53;12.10;95.30
40816;DHT22;26535;48.788;9.214;2023-12-28T12:27:21;12.10;95.20
40816;DHT22;26535;48.788;9.214;2023-12-28T12:29:47;12.20;95.40
40816;DHT22;26535;48.788;9.214;2023-12-28T12:32:12;12.20;95.10
40816;DHT22;26535;48.788;9.214;2023-12-28T12:34:39;12.20;95.10
40816;DHT22;26535;48.788;9.214;2023-12-28T12:37:05;12.20;95.10
40816;DHT22;26535;48.788;9.214;2023-12-28T12:39:31;12.20;95.00
40816;DHT22;26535;48.788;9.214;2023-12-28T12:41:58;12.30;94.60
40816;DHT22;26535;48.788;9.214;2023-12-28T12:44:23;12.30;94.70
40816;DHT22;26535;48.788;9.214;2023-12-28T12:46:59;12.30;94.50
40816;DHT22;26535;48.788;9.214;2023-12-28T12:49:25;12.20;94.70
40816;DHT22;26535;48.788;9.214;2023-12-28T12:51:51;12.20;94.50
40816;DHT22;26535;48.788;9.214;2023-12-28T12:54:17;12.20;94.50
40816;DHT22;26535;48.788;9.214;2023-12-28T12:56:47;12.20;94.50
40816;DHT22;26535;48.788;9.214;2023-12-28T12:59:12;12.30;94.60
40816;DHT22;26535;48.788;9.214;2023-12-28T13:01:47;12.30;94.60
40816;DHT22;26535;48.788;9.214;2023-12-28T13:04:16;12.20;94.70
40816;DHT22;26535;48.788;9.214;2023-12-28T13:06:42;12.20;95.10
40816;DHT22;26535;48.788;9.214;2023-12-28T13:09:11;12.10;95.20
40816;DHT22;26535;48.788;9.214;2023-12-28T13:11:37;12.10;95.60
40816;DHT22;26535;48.788;9.214;2023-12-28T13:14:03;12.10;95.90
40816;DHT22;26535;48.788;9.214;2023-12-28T13:16:30;12.10;95.80
40816;DHT22;26535;48.788;9.214;2023-12-28T13:18:56;12.20;96.00
40816;DHT22;26535;48.788;9.214;2023-12-28T13:21:22;12.10;96.10
40816;DHT22;26535;48.788;9.214;2023-12-28T13:23:47;12.00;96.20
40816;DHT22;26535;48.788;9.214;2023-12-28T13:26:13;11.90;96.50
40816;DHT22;26535;48.788;9.214;2023-12-28T13:28:39;11.90;96.80
40816;DHT22;26535;48.788;9.214;2023-12-28T13:31:05;11.80;96.80
40816;DHT22;26535;48.788;9.214;2023-12-28T13:33:31;11.90;96.10
40816;DHT22;26535;48.788;9.214;2023-12-28T13:35:56;11.90;96.20
40816;DHT22;26535;48.788;9.214;2023-12-28T13:38:23;12.00;96.60
40816;DHT22;26535;48.788;9.214;2023-12-28T13:40:49;12.00;96.70
40816;DHT22;26535;48.788;9.214;2023-12-28T13:43:14;12.00;97.00
40816;DHT22;26535;48.788;9.214;2023-12-28T13:45:40;12.00;97.30
40816;DHT22;26535;48.788;9.214;2023-12-28T13:48:06;12.00;97.60
40816;DHT22;26535;48.788;9.214;2023-12-28T13:50:32;11.90;97.50
40816;DHT22;26535;48.788;9.214;2023-12-28T13:52:58;11.90;97.60
40816;DHT22;26535;48.788;9.214;2023-12-28T13:55:24;11.80;97.50
40816;DHT22;26535;48.788;9.214;2023-12-28T13:57:50;11.80;96.80
40816;DHT22;26535;48.788;9.214;2023-12-28T14:00:16;11.90;96.90
40816;DHT22;26535;48.788;9.214;2023-12-28T14:02:41;11.90;97.00
40816;DHT22;26535;48.788;9.214;2023-12-28T14:05:07;11.90;97.10
40816;DHT22;26535;48.788;9.214;2023-12-28T14:07:33;11.90;97.50
40816;DHT22;26535;48.788;9.214;2023-12-28T14:09:59;11.90;97.80
40816;DHT22;26535;48.788;9.214;2023-12-28T14:12:24;11.80;97.80
40816;DHT22;26535;48.788;9.214;2023-12-28T14:14:50;11.90;97.70
40816;DHT22;26535;48.788;9.214;2023-12-28T14:17:16;11.90;97.90
40816;DHT22;26535;48.788;9.214;2023-12-28T14:19:45;11.90;98.00
40816;DHT22;26535;48.788;9.214;2023-12-28T14:22:12;11.80;97.90
40816;DHT22;26535;48.788;9.214;2023-12-28T14:24:38;11.80;98.00
40816;DHT22;26535;48.788;9.214;2023-12-28T14:27:04;11.80;98.50
40816;DHT22;26535;48.788;9.214;2023-12-28T14:29:30;11.70;98.20
40816;DHT22;26535;48.788;9.214;2023-12-28T14:31:56;11.70;98.50
40816;DHT22;26535;48.788;9.214;2023-12-28T14:34:22;11.70;98.90
40816;DHT22;26535;48.788;9.214;2023-12-28T14:36:50;11.70;98.90
40816;DHT22;26535;48.788;9.214;2023-12-28T14:39:18;11.70;98.70
40816;DHT22;26535;48.788;9.214;2023-12-28T14:41:46;11.60;99.00
40816;DHT22;26535;48.788;9.214;2023-12-28T14:44:12;11.50;99.10
40816;DHT22;26535;48.788;9.214;2023-12-28T14:46:38;11.50;99.10
40816;DHT22;26535;48.788;9.214;2023-12-28T14:49:03;11.50;99.40
40816;DHT22;26535;48.788;9.214;2023-12-28T14:51:30;11.50;99.50
40816;DHT22;26535;48.788;9.214;2023-12-28T14:53:56;11.50;99.70
40816;DHT22;26535;48.788;9.214;2023-12-28T14:56:22;11.40;99.40
40816;DHT22;26535;48.788;9.214;2023-12-28T14:58:47;11.40;99.60
40816;DHT22;26535;48.788;9.214;2023-12-28T15:01:17;11.40;99.70
40816;DHT22;26535;48.788;9.214;2023-12-28T15:03:45;11.40;99.70
40816;DHT22;26535;48.788;9.214;2023-12-28T15:06:11;11.30;99.80
40816;DHT22;26535;48.788;9.214;2023-12-28T15:08:36;11.30;99.90
40816;DHT22;26535;48.788;9.214;2023-12-28T15:11:03;11.30;99.90
40816;DHT22;26535;48.788;9.214;2023-12-28T15:13:29;11.20;99.90
40816;DHT22;26535;48.788;9.214;2023-12-28T15:15:55;11.20;99.80
40816;DHT22;26535;48.788;9.214;2023-12-28T15:18:21;11.30;99.50
40816;DHT22;26535;48.788;9.214;2023-12-28T15:20:47;11.30;99.40
40816;DHT22;26535;48.788;9.214;2023-12-28T15:23:14;11.30;99.10
40816;DHT22;26535;48.788;9.214;2023-12-28T15:25:44;11.30;99.10
40816;DHT22;26535;48.788;9.214;2023-12-28T15:28:10;11.30;98.90
40816;DHT22;26535;48.788;9.214;2023-12-28T15:30:35;11.30;99.00
40816;DHT22;26535;48.788;9.214;2023-12-28T15:33:01;11.30;99.00
40816;DHT22;26535;48.788;9.214;2023-12-28T15:35:27;11.30;98.90
40816;DHT22;26535;48.788;9.214;2023-12-28T15:37:53;11.30;99.10
40816;DHT22;26535;48.788;9.214;2023-12-28T15:40:21;11.20;99.00
40816;DHT22;26535;48.788;9.214;2023-12-28T15:42:46;11.20;99.00